Hauptseite
METAR-TAF:

METAR-TAF

Flughäfen :

Heeresflugplatz Bückeburg

Bückeburg, Deutschland

Breite: 52-17N, Länge: 009-05E, Höhe: 70 m

Beobachtung

Neuester Wetterbericht von vor 1 Stunde und 0 Minuten, um 15:20 UTC
Wind 7 kt aus Nordost
Temperatur 28°C
Luftfeuchtigkeit 37%
Luftdruck 1012 hPa
Sichtweite 10 km oder mehr
Leicht bewölkt in der Höhe von 6000 ft

METAR: ETHB 161520Z 05007KT 9999 FEW060 28/12 Q1012 BLU+BLU+

Zeit: 18:20 (16:20 UTC)

Prognose

Neuester Wetterbericht von vor 20 Minuten, um 16:00 UTC
Gültige Prognose vom 16 um 14 UTC bis 16 um 23 UTC
Wind 5 kt aus Ost/Nordost
Sichtweite: 1630 m
Himmel klar

TAF: ETHB 161600Z 1614/1623 06005KT 9999 NSW SKC CANCEL 1630

Wetterbeobachtungen und Prognosen von mehr als 4000 Flughäfen (METAR und TAF Bericht).

Die verfügbaren Stationen werden durch gelbe und rote Markierungen auf der Karte dargestellt.

Führen Sie die Maus auf sie, um den Namen der Station zu sehen.

Darauf klicken, um die Beobachtung von Wetterbeobachtungen und Prognosen zu sehen.

Um die Karte zu ändern : klicken Sie auf den grünen Tasten mit einem schwarzen Kreuz Zum Vergrößern, auf den grünen Button mit einem Gedankenstrich zu verkleinern, oder auf die grünen Pfeile für benachbarte Karten.


METAR-TAF: